sensor_id;sensor_type;location;lat;lon;timestamp;pressure;altitude;pressure_sealevel;temperature;humidity
53689;BME280;39583;54.682;30.662;2022-10-17T08:03:06;100524.69;;;11.91;93.64
53689;BME280;39583;54.682;30.662;2022-10-17T08:05:34;100523.09;;;12.10;93.37
53689;BME280;39583;54.682;30.662;2022-10-17T08:08:00;100516.25;;;12.21;93.17
53689;BME280;39583;54.682;30.662;2022-10-17T08:10:27;100537.50;;;12.37;92.73
53689;BME280;39583;54.682;30.662;2022-10-17T08:12:55;100539.78;;;12.47;92.63
53689;BME280;39583;54.682;30.662;2022-10-17T08:15:23;100538.13;;;12.59;92.32
53689;BME280;39583;54.682;30.662;2022-10-17T08:17:50;100520.88;;;12.60;92.10
53689;BME280;39583;54.682;30.662;2022-10-17T08:20:16;100536.72;;;12.76;91.35
53689;BME280;39583;54.682;30.662;2022-10-17T08:22:50;100543.75;;;12.70;91.27
53689;BME280;39583;54.682;30.662;2022-10-17T08:25:17;100543.34;;;12.87;91.82
53689;BME280;39583;54.682;30.662;2022-10-17T08:27:43;100532.31;;;12.88;90.96
53689;BME280;39583;54.682;30.662;2022-10-17T08:30:10;100538.34;;;13.10;90.92
53689;BME280;39583;54.682;30.662;2022-10-17T08:32:36;100537.69;;;13.28;90.16
53689;BME280;39583;54.682;30.662;2022-10-17T08:35:02;100531.28;;;13.29;89.51
53689;BME280;39583;54.682;30.662;2022-10-17T08:37:29;100543.53;;;13.32;89.14
53689;BME280;39583;54.682;30.662;2022-10-17T08:39:56;100534.81;;;13.23;88.84
53689;BME280;39583;54.682;30.662;2022-10-17T08:45:23;100533.97;;;13.22;89.30
53689;BME280;39583;54.682;30.662;2022-10-17T08:47:58;100523.78;;;13.31;89.14
53689;BME280;39583;54.682;30.662;2022-10-17T08:50:45;100528.72;;;13.41;89.17
53689;BME280;39583;54.682;30.662;2022-10-17T08:53:18;100517.91;;;13.41;88.42
53689;BME280;39583;54.682;30.662;2022-10-17T08:55:48;100528.69;;;13.54;88.67
53689;BME280;39583;54.682;30.662;2022-10-17T08:58:19;100523.44;;;13.72;88.51
53689;BME280;39583;54.682;30.662;2022-10-17T09:01:10;100506.88;;;13.94;87.91
53689;BME280;39583;54.682;30.662;2022-10-17T09:04:02;100501.25;;;13.95;86.69
53689;BME280;39583;54.682;30.662;2022-10-17T09:12:13;100514.44;;;13.78;86.29
53689;BME280;39583;54.682;30.662;2022-10-17T09:17:26;100517.84;;;13.61;85.37
53689;BME280;39583;54.682;30.662;2022-10-17T09:20:20;100516.63;;;13.56;85.70
53689;BME280;39583;54.682;30.662;2022-10-17T09:25:20;100504.38;;;13.92;86.66
53689;BME280;39583;54.682;30.662;2022-10-17T09:31:11;100513.59;;;14.23;85.01
53689;BME280;39583;54.682;30.662;2022-10-17T09:33:41;100514.13;;;14.31;84.58
53689;BME280;39583;54.682;30.662;2022-10-17T09:36:12;100511.78;;;14.41;84.45
53689;BME280;39583;54.682;30.662;2022-10-17T09:38:42;100509.13;;;14.35;83.18
53689;BME280;39583;54.682;30.662;2022-10-17T09:41:16;100519.56;;;14.31;83.76
53689;BME280;39583;54.682;30.662;2022-10-17T09:43:44;100520.31;;;14.45;83.95
53689;BME280;39583;54.682;30.662;2022-10-17T09:46:53;100511.91;;;14.60;83.56
53689;BME280;39583;54.682;30.662;2022-10-17T09:49:37;100513.78;;;14.59;83.11
53689;BME280;39583;54.682;30.662;2022-10-17T09:52:08;100509.81;;;14.62;83.34
53689;BME280;39583;54.682;30.662;2022-10-17T09:54:42;100515.16;;;14.68;83.08
53689;BME280;39583;54.682;30.662;2022-10-17T09:57:10;100520.16;;;14.71;83.21
53689;BME280;39583;54.682;30.662;2022-10-17T09:59:39;100513.38;;;14.81;82.71
53689;BME280;39583;54.682;30.662;2022-10-17T10:02:17;100520.31;;;14.77;81.79
53689;BME280;39583;54.682;30.662;2022-10-17T10:07:30;100509.84;;;14.80;81.80
53689;BME280;39583;54.682;30.662;2022-10-17T10:09:57;100523.88;;;14.95;81.96
53689;BME280;39583;54.682;30.662;2022-10-17T10:12:34;100524.34;;;14.92;80.73
53689;BME280;39583;54.682;30.662;2022-10-17T10:15:00;100530.22;;;14.89;80.57
53689;BME280;39583;54.682;30.662;2022-10-17T10:17:40;100523.06;;;14.70;79.80
53689;BME280;39583;54.682;30.662;2022-10-17T10:20:33;100520.91;;;14.79;80.06
53689;BME280;39583;54.682;30.662;2022-10-17T10:25:34;100522.94;;;14.83;79.71
53689;BME280;39583;54.682;30.662;2022-10-17T10:28:01;100522.53;;;14.86;79.53
53689;BME280;39583;54.682;30.662;2022-10-17T10:30:34;100526.50;;;14.84;79.32
53689;BME280;39583;54.682;30.662;2022-10-17T10:33:00;100528.28;;;14.71;79.33
53689;BME280;39583;54.682;30.662;2022-10-17T10:35:34;100524.13;;;14.69;79.48
53689;BME280;39583;54.682;30.662;2022-10-17T10:38:08;100528.22;;;14.78;79.46
53689;BME280;39583;54.682;30.662;2022-10-17T10:40:43;100522.00;;;14.71;78.72
53689;BME280;39583;54.682;30.662;2022-10-17T10:45:47;100512.66;;;14.67;78.82
53689;BME280;39583;54.682;30.662;2022-10-17T10:48:35;100525.63;;;14.65;78.74
53689;BME280;39583;54.682;30.662;2022-10-17T10:51:06;100523.63;;;14.79;78.99
53689;BME280;39583;54.682;30.662;2022-10-17T10:56:21;100521.28;;;14.82;78.17
53689;BME280;39583;54.682;30.662;2022-10-17T11:01:45;100513.47;;;14.74;78.45
53689;BME280;39583;54.682;30.662;2022-10-17T11:06:59;100506.38;;;14.73;78.31
53689;BME280;39583;54.682;30.662;2022-10-17T11:12:09;100498.75;;;15.07;78.24
53689;BME280;39583;54.682;30.662;2022-10-17T11:14:48;100485.06;;;15.20;77.68
53689;BME280;39583;54.682;30.662;2022-10-17T11:20:02;100495.09;;;15.38;77.49
53689;BME280;39583;54.682;30.662;2022-10-17T11:22:37;100488.75;;;15.44;77.27
53689;BME280;39583;54.682;30.662;2022-10-17T11:25:31;100494.03;;;15.57;77.23
53689;BME280;39583;54.682;30.662;2022-10-17T11:27:58;100480.63;;;15.62;77.04
53689;BME280;39583;54.682;30.662;2022-10-17T11:30:28;100476.41;;;15.66;76.65
53689;BME280;39583;54.682;30.662;2022-10-17T11:33:02;100462.91;;;15.78;76.62
53689;BME280;39583;54.682;30.662;2022-10-17T11:35:36;100469.59;;;15.75;76.05
53689;BME280;39583;54.682;30.662;2022-10-17T11:40:50;100480.69;;;15.55;75.98
53689;BME280;39583;54.682;30.662;2022-10-17T11:43:54;100477.66;;;15.45;76.45
53689;BME280;39583;54.682;30.662;2022-10-17T11:46:21;100468.94;;;15.43;76.47
53689;BME280;39583;54.682;30.662;2022-10-17T11:49:10;100474.28;;;15.31;76.58
53689;BME280;39583;54.682;30.662;2022-10-17T11:51:53;100463.88;;;15.28;77.09
53689;BME280;39583;54.682;30.662;2022-10-17T11:54:43;100466.97;;;15.32;77.09
53689;BME280;39583;54.682;30.662;2022-10-17T12:11:15;100450.63;;;15.02;77.46
53689;BME280;39583;54.682;30.662;2022-10-17T12:13:45;100450.38;;;15.03;77.39
53689;BME280;39583;54.682;30.662;2022-10-17T12:18:49;100457.59;;;15.10;77.36
53689;BME280;39583;54.682;30.662;2022-10-17T12:21:16;100458.84;;;15.14;77.00
53689;BME280;39583;54.682;30.662;2022-10-17T12:23:52;100463.81;;;15.17;76.85
53689;BME280;39583;54.682;30.662;2022-10-17T12:26:28;100474.44;;;15.18;76.19
53689;BME280;39583;54.682;30.662;2022-10-17T12:28:55;100484.91;;;15.15;75.96
53689;BME280;39583;54.682;30.662;2022-10-17T12:31:24;100502.56;;;15.24;76.16
53689;BME280;39583;54.682;30.662;2022-10-17T12:34:02;100509.56;;;15.31;75.78
53689;BME280;39583;54.682;30.662;2022-10-17T12:52:25;100504.91;;;15.39;74.48
53689;BME280;39583;54.682;30.662;2022-10-17T12:54:56;100497.63;;;15.32;73.89
53689;BME280;39583;54.682;30.662;2022-10-17T13:00:51;100507.56;;;15.02;74.43
53689;BME280;39583;54.682;30.662;2022-10-17T13:02:54;100496.53;;;14.97;75.12
53689;BME280;39583;54.682;30.662;2022-10-17T13:05:33;100504.53;;;14.92;75.30
53689;BME280;39583;54.682;30.662;2022-10-17T13:08:03;100506.63;;;14.90;75.57
53689;BME280;39583;54.682;30.662;2022-10-17T13:10:35;100517.53;;;14.83;75.54
53689;BME280;39583;54.682;30.662;2022-10-17T13:13:12;100512.50;;;14.87;75.75
53689;BME280;39583;54.682;30.662;2022-10-17T13:15:45;100521.69;;;14.86;75.85
53689;BME280;39583;54.682;30.662;2022-10-17T13:18:18;100527.72;;;14.88;76.00
53689;BME280;39583;54.682;30.662;2022-10-17T13:21:00;100524.41;;;14.86;75.88
53689;BME280;39583;54.682;30.662;2022-10-17T13:23:31;100522.94;;;14.83;76.30
53689;BME280;39583;54.682;30.662;2022-10-17T13:28:35;100522.75;;;14.85;76.62
53689;BME280;39583;54.682;30.662;2022-10-17T13:31:01;100524.41;;;14.86;76.63
53689;BME280;39583;54.682;30.662;2022-10-17T13:33:39;100530.03;;;14.84;76.73
53689;BME280;39583;54.682;30.662;2022-10-17T13:36:07;100522.56;;;14.80;76.65
53689;BME280;39583;54.682;30.662;2022-10-17T13:38:38;100531.09;;;14.83;76.69
53689;BME280;39583;54.682;30.662;2022-10-17T13:41:10;100520.91;;;14.79;76.94
53689;BME280;39583;54.682;30.662;2022-10-17T13:43:39;100533.66;;;14.78;77.05
53689;BME280;39583;54.682;30.662;2022-10-17T13:46:05;100524.91;;;14.76;77.09
53689;BME280;39583;54.682;30.662;2022-10-17T13:48:35;100518.66;;;14.75;77.23
53689;BME280;39583;54.682;30.662;2022-10-17T13:51:04;100511.38;;;14.69;77.54
53689;BME280;39583;54.682;30.662;2022-10-17T13:53:36;100523.88;;;14.70;77.70
53689;BME280;39583;54.682;30.662;2022-10-17T13:56:25;100526.00;;;14.68;77.52
53689;BME280;39583;54.682;30.662;2022-10-17T13:59:01;100527.28;;;14.66;77.63
53689;BME280;39583;54.682;30.662;2022-10-17T14:01:30;100523.34;;;14.62;77.91
53689;BME280;39583;54.682;30.662;2022-10-17T14:03:57;100534.22;;;14.55;78.06
53689;BME280;39583;54.682;30.662;2022-10-17T14:06:25;100532.84;;;14.46;78.39
53689;BME280;39583;54.682;30.662;2022-10-17T14:08:59;100539.09;;;14.40;78.63
53689;BME280;39583;54.682;30.662;2022-10-17T14:11:36;100535.81;;;14.31;78.71
53689;BME280;39583;54.682;30.662;2022-10-17T14:14:05;100526.72;;;14.19;79.15
53689;BME280;39583;54.682;30.662;2022-10-17T14:16:35;100525.34;;;14.03;79.54
53689;BME280;39583;54.682;30.662;2022-10-17T14:19:03;100533.53;;;13.90;79.85
53689;BME280;39583;54.682;30.662;2022-10-17T14:21:30;100513.66;;;13.65;80.04
53689;BME280;39583;54.682;30.662;2022-10-17T14:24:26;100537.41;;;13.63;80.43
53689;BME280;39583;54.682;30.662;2022-10-17T14:26:55;100532.47;;;13.46;80.69
53689;BME280;39583;54.682;30.662;2022-10-17T14:29:27;100532.50;;;13.33;80.90
53689;BME280;39583;54.682;30.662;2022-10-17T14:31:59;100524.81;;;13.17;81.23
53689;BME280;39583;54.682;30.662;2022-10-17T14:34:35;100511.94;;;12.99;81.53
53689;BME280;39583;54.682;30.662;2022-10-17T14:37:08;100522.75;;;12.86;81.63
53689;BME280;39583;54.682;30.662;2022-10-17T14:39:35;100520.88;;;12.73;82.29
53689;BME280;39583;54.682;30.662;2022-10-17T14:42:01;100520.47;;;12.63;82.26
53689;BME280;39583;54.682;30.662;2022-10-17T14:44:30;100520.44;;;12.50;82.56
53689;BME280;39583;54.682;30.662;2022-10-17T14:46:59;100518.38;;;12.32;82.70
53689;BME280;39583;54.682;30.662;2022-10-17T14:49:33;100528.31;;;12.18;83.13
53689;BME280;39583;54.682;30.662;2022-10-17T14:54:45;100528.16;;;11.72;82.94
53689;BME280;39583;54.682;30.662;2022-10-17T14:57:26;100526.81;;;11.55;83.60
53689;BME280;39583;54.682;30.662;2022-10-17T14:59:56;100531.28;;;11.41;83.82
53689;BME280;39583;54.682;30.662;2022-10-17T15:02:24;100528.94;;;11.31;84.40
53689;BME280;39583;54.682;30.662;2022-10-17T15:04:54;100538.03;;;11.23;84.76
53689;BME280;39583;54.682;30.662;2022-10-17T15:07:21;100534.47;;;11.16;85.01
53689;BME280;39583;54.682;30.662;2022-10-17T15:09:50;100546.69;;;11.12;85.33
53689;BME280;39583;54.682;30.662;2022-10-17T15:12:22;100537.91;;;11.04;85.28
53689;BME280;39583;54.682;30.662;2022-10-17T15:14:49;100546.34;;;10.94;85.43
53689;BME280;39583;54.682;30.662;2022-10-17T15:17:19;100547.13;;;10.88;85.38
53689;BME280;39583;54.682;30.662;2022-10-17T15:19:47;100548.94;;;10.81;85.49
53689;BME280;39583;54.682;30.662;2022-10-17T15:22:13;100552.59;;;10.73;85.62
53689;BME280;39583;54.682;30.662;2022-10-17T15:24:41;100549.59;;;10.61;85.99
53689;BME280;39583;54.682;30.662;2022-10-17T15:27:21;100557.03;;;10.59;86.10
53689;BME280;39583;54.682;30.662;2022-10-17T15:29:49;100560.69;;;10.52;86.18
53689;BME280;39583;54.682;30.662;2022-10-17T15:32:16;100568.91;;;10.44;86.27
53689;BME280;39583;54.682;30.662;2022-10-17T15:34:42;100560.09;;;10.35;86.35
53689;BME280;39583;54.682;30.662;2022-10-17T15:37:20;100557.91;;;10.24;86.50
53689;BME280;39583;54.682;30.662;2022-10-17T15:39:52;100560.44;;;10.11;86.27
53689;BME280;39583;54.682;30.662;2022-10-17T15:42:21;100556.16;;;10.01;86.62
53689;BME280;39583;54.682;30.662;2022-10-17T15:44:48;100552.59;;;9.94;86.90
53689;BME280;39583;54.682;30.662;2022-10-17T15:47:29;100555.66;;;9.91;86.94
53689;BME280;39583;54.682;30.662;2022-10-17T15:49:58;100561.97;;;9.84;87.00
53689;BME280;39583;54.682;30.662;2022-10-17T15:52:25;100558.94;;;9.72;86.99
53689;BME280;39583;54.682;30.662;2022-10-17T15:54:52;100562.56;;;9.64;86.89
53689;BME280;39583;54.682;30.662;2022-10-17T15:57:25;100568.75;;;9.50;86.93
53689;BME280;39583;54.682;30.662;2022-10-17T15:59:53;100565.06;;;9.36;86.86
53689;BME280;39583;54.682;30.662;2022-10-17T16:02:21;100561.16;;;9.24;87.31
53689;BME280;39583;54.682;30.662;2022-10-17T16:04:48;100571.00;;;9.17;87.59
53689;BME280;39583;54.682;30.662;2022-10-17T16:07:16;100571.38;;;9.14;87.45
53689;BME280;39583;54.682;30.662;2022-10-17T16:09:43;100569.94;;;9.03;87.39
53689;BME280;39583;54.682;30.662;2022-10-17T16:12:12;100569.19;;;8.95;87.50
53689;BME280;39583;54.682;30.662;2022-10-17T16:14:40;100558.69;;;8.85;87.39
53689;BME280;39583;54.682;30.662;2022-10-17T16:17:13;100569.53;;;8.77;87.52
53689;BME280;39583;54.682;30.662;2022-10-17T16:19:40;100568.56;;;8.70;87.79
53689;BME280;39583;54.682;30.662;2022-10-17T16:22:21;100575.50;;;8.64;88.08
53689;BME280;39583;54.682;30.662;2022-10-17T16:24:48;100569.66;;;8.61;87.94
53689;BME280;39583;54.682;30.662;2022-10-17T16:27:15;100575.03;;;8.61;88.21
53689;BME280;39583;54.682;30.662;2022-10-17T16:29:41;100571.16;;;8.63;88.56
53689;BME280;39583;54.682;30.662;2022-10-17T16:32:08;100575.97;;;8.68;88.47
53689;BME280;39583;54.682;30.662;2022-10-17T16:34:35;100576.50;;;8.63;88.35
53689;BME280;39583;54.682;30.662;2022-10-17T16:37:01;100561.00;;;8.50;88.57
53689;BME280;39583;54.682;30.662;2022-10-17T16:39:27;100579.56;;;8.60;88.87
53689;BME280;39583;54.682;30.662;2022-10-17T16:41:54;100576.19;;;8.58;88.88
53689;BME280;39583;54.682;30.662;2022-10-17T16:44:21;100577.59;;;8.54;88.90
53689;BME280;39583;54.682;30.662;2022-10-17T16:46:47;100576.75;;;8.53;89.04
53689;BME280;39583;54.682;30.662;2022-10-17T16:49:14;100575.56;;;8.56;89.34
53689;BME280;39583;54.682;30.662;2022-10-17T16:51:43;100579.06;;;8.56;89.22
53689;BME280;39583;54.682;30.662;2022-10-17T16:54:09;100588.13;;;8.55;89.49
53689;BME280;39583;54.682;30.662;2022-10-17T16:56:36;100584.81;;;8.53;89.56
53689;BME280;39583;54.682;30.662;2022-10-17T16:59:02;100580.63;;;8.51;89.46
53689;BME280;39583;54.682;30.662;2022-10-17T17:01:29;100583.69;;;8.48;89.47
53689;BME280;39583;54.682;30.662;2022-10-17T17:03:55;100581.34;;;8.45;89.44
53689;BME280;39583;54.682;30.662;2022-10-17T17:06:25;100581.88;;;8.32;89.33
53689;BME280;39583;54.682;30.662;2022-10-17T17:08:52;100585.47;;;8.24;89.45
53689;BME280;39583;54.682;30.662;2022-10-17T17:11:20;100582.19;;;8.14;89.59
53689;BME280;39583;54.682;30.662;2022-10-17T17:13:47;100585.59;;;8.08;89.64
53689;BME280;39583;54.682;30.662;2022-10-17T17:16:19;100596.63;;;8.05;89.86
53689;BME280;39583;54.682;30.662;2022-10-17T17:18:49;100605.75;;;7.96;89.64
53689;BME280;39583;54.682;30.662;2022-10-17T17:21:18;100600.91;;;7.91;89.91
53689;BME280;39583;54.682;30.662;2022-10-17T17:23:44;100610.13;;;7.89;89.98
53689;BME280;39583;54.682;30.662;2022-10-17T17:26:14;100594.75;;;7.83;90.14
53689;BME280;39583;54.682;30.662;2022-10-17T17:28:42;100600.78;;;7.85;90.03
53689;BME280;39583;54.682;30.662;2022-10-17T17:31:10;100586.91;;;7.73;90.37
53689;BME280;39583;54.682;30.662;2022-10-17T17:33:38;100600.97;;;7.83;90.65
53689;BME280;39583;54.682;30.662;2022-10-17T17:36:07;100598.28;;;7.83;90.69
53689;BME280;39583;54.682;30.662;2022-10-17T17:38:37;100609.84;;;7.84;90.62
53689;BME280;39583;54.682;30.662;2022-10-17T17:41:05;100600.97;;;7.83;90.55
53689;BME280;39583;54.682;30.662;2022-10-17T17:43:31;100603.31;;;7.78;90.44
53689;BME280;39583;54.682;30.662;2022-10-17T17:46:00;100592.63;;;7.70;90.89
53689;BME280;39583;54.682;30.662;2022-10-17T17:48:27;100599.31;;;7.74;91.03
53689;BME280;39583;54.682;30.662;2022-10-17T17:50:53;100598.28;;;7.75;90.89
53689;BME280;39583;54.682;30.662;2022-10-17T17:53:20;100596.09;;;7.79;91.14
53689;BME280;39583;54.682;30.662;2022-10-17T17:55:47;100595.78;;;7.82;90.95
53689;BME280;39583;54.682;30.662;2022-10-17T17:58:13;100595.78;;;7.82;91.06
53689;BME280;39583;54.682;30.662;2022-10-17T18:00:40;100590.41;;;7.82;91.09
53689;BME280;39583;54.682;30.662;2022-10-17T18:03:06;100576.66;;;7.77;91.23
53689;BME280;39583;54.682;30.662;2022-10-17T18:05:33;100585.53;;;7.85;91.01
53689;BME280;39583;54.682;30.662;2022-10-17T18:08:00;100584.88;;;7.83;91.34
53689;BME280;39583;54.682;30.662;2022-10-17T18:10:27;100592.06;;;7.83;91.37
53689;BME280;39583;54.682;30.662;2022-10-17T18:12:55;100583.19;;;7.82;91.18
53689;BME280;39583;54.682;30.662;2022-10-17T18:15:21;100594.94;;;7.81;91.30
53689;BME280;39583;54.682;30.662;2022-10-17T18:17:48;100590.41;;;7.82;91.33
53689;BME280;39583;54.682;30.662;2022-10-17T18:20:15;100587.03;;;7.80;91.56
53689;BME280;39583;54.682;30.662;2022-10-17T18:22:42;100585.19;;;7.80;91.49
53689;BME280;39583;54.682;30.662;2022-10-17T18:25:08;100592.41;;;7.80;91.42
53689;BME280;39583;54.682;30.662;2022-10-17T18:27:35;100579.00;;;7.80;91.62
53689;BME280;39583;54.682;30.662;2022-10-17T18:30:03;100596.59;;;7.82;91.54
53689;BME280;39583;54.682;30.662;2022-10-17T18:32:30;100589.03;;;7.86;91.79
53689;BME280;39583;54.682;30.662;2022-10-17T18:34:57;100592.56;;;7.86;91.48
53689;BME280;39583;54.682;30.662;2022-10-17T18:37:23;100583.50;;;7.87;91.58
53689;BME280;39583;54.682;30.662;2022-10-17T18:39:50;100585.69;;;7.84;91.51
53689;BME280;39583;54.682;30.662;2022-10-17T18:42:19;100587.22;;;7.78;91.33
53689;BME280;39583;54.682;30.662;2022-10-17T18:44:46;100586.25;;;7.71;91.35
